createdAt,value
2023-03-16T00:00:32.003Z,7.80
2023-03-16T00:03:20.614Z,7.80
2023-03-16T00:06:06.468Z,7.90
2023-03-16T00:08:52.186Z,7.80
2023-03-16T00:11:37.593Z,7.80
2023-03-16T00:14:23.076Z,7.80
2023-03-16T00:17:08.959Z,7.90
2023-03-16T00:19:55.625Z,7.80
2023-03-16T00:22:42.005Z,7.70
2023-03-16T00:25:27.683Z,7.70
2023-03-16T00:28:14.105Z,7.70
2023-03-16T00:30:59.853Z,7.60
2023-03-16T00:33:45.405Z,7.60
2023-03-16T00:36:33.926Z,7.60
2023-03-16T00:39:20.633Z,7.60
2023-03-16T00:42:06.474Z,7.50
2023-03-16T00:44:57.157Z,7.50
2023-03-16T00:47:42.972Z,7.50
2023-03-16T00:50:29.013Z,7.50
2023-03-16T00:53:14.851Z,7.50
2023-03-16T00:56:04.431Z,7.40
2023-03-16T00:58:50.472Z,7.40
2023-03-16T01:01:36.887Z,7.40
2023-03-16T01:04:22.440Z,7.30
2023-03-16T01:07:08.618Z,7.30
2023-03-16T01:09:54.093Z,7.20
2023-03-16T01:12:39.992Z,7.20
2023-03-16T01:15:25.660Z,7.20
2023-03-16T01:18:13.423Z,7.20
2023-03-16T01:20:59.060Z,7.20
2023-03-16T01:23:45.187Z,7.20
2023-03-16T01:26:31.248Z,7.20
2023-03-16T01:29:17.232Z,7.10
2023-03-16T01:32:04.301Z,7.10
2023-03-16T01:34:50.311Z,7.10
2023-03-16T01:37:37.456Z,7.10
2023-03-16T01:40:39.761Z,7.00
2023-03-16T01:43:27.181Z,7.00
2023-03-16T01:46:18.371Z,7.00
2023-03-16T01:49:09.303Z,7.00
2023-03-16T01:52:10.125Z,7.00
2023-03-16T01:54:57.224Z,6.80
2023-03-16T01:57:45.208Z,6.80
2023-03-16T02:00:31.753Z,6.80
2023-03-16T02:03:36.912Z,6.80
2023-03-16T02:06:37.107Z,6.70
2023-03-16T02:09:24.128Z,6.60
2023-03-16T02:12:18.498Z,6.60
2023-03-16T02:15:09.460Z,6.70
2023-03-16T02:17:57.782Z,6.60
2023-03-16T02:20:43.921Z,6.60
2023-03-16T02:23:29.832Z,6.60
2023-03-16T02:26:24.455Z,6.60
2023-03-16T02:29:17.160Z,6.60
2023-03-16T02:32:05.822Z,6.60
2023-03-16T02:34:52.138Z,6.50
2023-03-16T02:37:37.822Z,6.30
2023-03-16T02:40:25.820Z,6.20
2023-03-16T02:43:15.440Z,6.10
2023-03-16T02:46:06.588Z,6.20
2023-03-16T02:49:11.096Z,6.00
2023-03-16T02:51:57.659Z,5.80
2023-03-16T02:54:43.596Z,5.80
2023-03-16T02:57:29.502Z,5.60
2023-03-16T03:00:22.057Z,5.60
2023-03-16T03:03:09.946Z,5.60
2023-03-16T03:05:56.715Z,5.70
2023-03-16T03:08:42.783Z,5.70
2023-03-16T03:11:28.908Z,5.70
2023-03-16T03:14:16.812Z,5.60
2023-03-16T03:17:08.248Z,5.60
2023-03-16T03:19:54.759Z,5.60
2023-03-16T03:22:40.458Z,5.70
2023-03-16T03:25:26.382Z,5.70
2023-03-16T03:28:13.154Z,5.70
2023-03-16T03:30:58.882Z,5.70
2023-03-16T03:33:44.720Z,5.60
2023-03-16T03:36:30.361Z,5.60
2023-03-16T03:39:16.209Z,5.60
2023-03-16T03:42:03.065Z,5.60
2023-03-16T03:44:48.532Z,5.60
2023-03-16T03:47:34.456Z,5.60
2023-03-16T03:50:21.200Z,5.50
2023-03-16T03:53:29.896Z,5.50
2023-03-16T03:56:34.575Z,5.40
2023-03-16T03:59:20.579Z,5.40
2023-03-16T04:02:28.660Z,5.40
2023-03-16T04:05:15.146Z,5.40
2023-03-16T04:08:01.633Z,5.50
2023-03-16T04:10:47.523Z,5.50
2023-03-16T04:13:33.452Z,5.50
2023-03-16T04:16:20.411Z,5.60
2023-03-16T04:19:09.467Z,5.70
2023-03-16T04:21:55.128Z,5.70
2023-03-16T04:24:43.198Z,5.70
2023-03-16T04:27:30.542Z,5.80
2023-03-16T04:30:16.958Z,5.80
2023-03-16T04:33:07.648Z,5.80
2023-03-16T04:35:53.200Z,5.80
2023-03-16T04:38:42.101Z,5.80
2023-03-16T04:41:29.066Z,5.80
2023-03-16T04:44:28.961Z,5.80
2023-03-16T04:47:16.282Z,5.70
2023-03-16T04:50:03.358Z,5.60
2023-03-16T04:52:49.530Z,5.50
2023-03-16T04:55:35.260Z,5.30
2023-03-16T04:58:22.858Z,5.30
2023-03-16T05:01:09.952Z,5.20
2023-03-16T05:03:58.547Z,5.10
2023-03-16T05:06:45.826Z,5.10
2023-03-16T05:09:32.551Z,5.20
2023-03-16T05:12:18.728Z,5.10
2023-03-16T05:15:07.028Z,5.10
2023-03-16T05:18:03.580Z,5.10
2023-03-16T05:20:51.065Z,5.10
2023-03-16T05:23:36.631Z,5.10
2023-03-16T05:26:22.502Z,5.00
2023-03-16T05:29:08.719Z,5.00
2023-03-16T05:31:54.385Z,5.10
2023-03-16T05:34:43.500Z,5.10
2023-03-16T05:37:31.165Z,5.10
2023-03-16T05:40:22.937Z,5.20
2023-03-16T05:43:21.997Z,5.20
2023-03-16T05:46:10.047Z,5.20
2023-03-16T05:48:56.240Z,5.30
2023-03-16T05:51:43.824Z,5.40
2023-03-16T05:54:29.405Z,5.60
2023-03-16T05:57:15.245Z,6.30
2023-03-16T06:00:18.180Z,7.10
2023-03-16T06:03:10.618Z,7.90
2023-03-16T06:05:57.467Z,8.70
2023-03-16T06:08:50.216Z,9.10
2023-03-16T06:11:38.219Z,9.30
2023-03-16T06:14:24.980Z,9.60
2023-03-16T06:17:12.969Z,10.00
2023-03-16T06:20:01.437Z,10.60
2023-03-16T06:22:47.575Z,11.30
2023-03-16T06:25:33.028Z,12.00
2023-03-16T06:28:18.810Z,12.30
2023-03-16T06:31:04.768Z,12.70
2023-03-16T06:33:53.551Z,12.90
2023-03-16T06:36:39.939Z,13.00
2023-03-16T06:39:30.953Z,13.10
2023-03-16T06:42:16.918Z,13.30
2023-03-16T06:45:03.700Z,13.70
2023-03-16T06:47:50.730Z,14.20
2023-03-16T06:50:37.071Z,14.40
2023-03-16T06:53:22.955Z,14.30
2023-03-16T06:56:08.819Z,13.90
2023-03-16T06:58:59.110Z,13.60
2023-03-16T07:01:45.224Z,13.30
2023-03-16T07:04:30.892Z,13.40
2023-03-16T07:07:17.409Z,13.20
2023-03-16T07:10:03.283Z,13.20
2023-03-16T07:12:50.319Z,13.10
2023-03-16T07:15:36.221Z,13.20
2023-03-16T07:18:22.587Z,13.10
2023-03-16T07:21:08.862Z,13.10
2023-03-16T07:23:55.840Z,12.90
2023-03-16T07:26:46.665Z,13.00
2023-03-16T07:29:41.407Z,12.90
2023-03-16T07:32:27.709Z,13.00
2023-03-16T07:35:14.474Z,13.20
2023-03-16T07:38:00.311Z,13.30
2023-03-16T07:40:47.231Z,13.20
2023-03-16T07:43:39.264Z,13.20
2023-03-16T07:46:28.254Z,13.30
2023-03-16T07:49:13.892Z,13.50
2023-03-16T07:51:59.443Z,13.40
2023-03-16T07:54:54.545Z,13.50
2023-03-16T07:57:42.224Z,13.40
2023-03-16T08:00:28.946Z,13.40
2023-03-16T08:03:16.043Z,13.40
2023-03-16T08:06:05.578Z,13.40
2023-03-16T08:08:51.557Z,13.40
2023-03-16T08:11:47.766Z,13.60
2023-03-16T08:14:36.823Z,13.70
2023-03-16T08:17:32.198Z,13.90
2023-03-16T08:20:19.753Z,14.00
2023-03-16T08:23:05.969Z,14.00
2023-03-16T08:25:59.134Z,14.10
2023-03-16T08:28:46.722Z,14.20
2023-03-16T08:31:35.374Z,14.20
2023-03-16T08:34:43.232Z,14.50
2023-03-16T08:37:29.596Z,14.50
2023-03-16T08:40:19.073Z,14.60
2023-03-16T08:43:06.384Z,14.70
2023-03-16T08:45:52.496Z,14.60
2023-03-16T08:48:42.059Z,14.60
2023-03-16T08:51:29.620Z,14.40
2023-03-16T08:54:16.053Z,14.50
2023-03-16T08:57:01.827Z,14.50
2023-03-16T08:59:47.408Z,14.60
2023-03-16T09:02:33.634Z,14.50
2023-03-16T09:05:19.467Z,14.70
2023-03-16T09:08:06.205Z,14.80
2023-03-16T09:10:58.800Z,15.20
2023-03-16T09:13:44.832Z,15.40
2023-03-16T09:16:31.103Z,15.40
2023-03-16T09:19:17.029Z,15.40
2023-03-16T09:22:02.424Z,15.40
2023-03-16T09:24:49.647Z,15.20
2023-03-16T09:27:39.787Z,14.90
2023-03-16T09:30:25.436Z,14.90
2023-03-16T09:33:11.348Z,15.00
2023-03-16T09:35:58.787Z,14.80
2023-03-16T09:38:54.648Z,14.90
2023-03-16T09:42:01.892Z,15.10
2023-03-16T09:44:53.811Z,15.10
2023-03-16T09:47:40.843Z,15.10
2023-03-16T09:50:35.236Z,15.30
2023-03-16T09:53:31.828Z,15.60
2023-03-16T09:56:22.537Z,15.60
2023-03-16T09:59:14.714Z,15.80
2023-03-16T10:02:21.034Z,15.70
2023-03-16T10:05:13.111Z,15.80
2023-03-16T10:08:06.712Z,15.40
2023-03-16T10:11:12.920Z,14.90
2023-03-16T10:14:04.840Z,14.50
2023-03-16T10:17:11.734Z,14.70
2023-03-16T10:20:01.386Z,14.60
2023-03-16T10:22:52.635Z,14.80
2023-03-16T10:25:50.094Z,14.70
2023-03-16T10:28:37.738Z,14.50
2023-03-16T10:31:23.679Z,14.30
2023-03-16T10:34:10.899Z,14.60
2023-03-16T10:36:59.629Z,14.70
2023-03-16T10:39:45.652Z,14.30
2023-03-16T10:42:35.685Z,14.20
2023-03-16T10:45:29.098Z,14.60
2023-03-16T10:48:16.629Z,14.60
2023-03-16T10:51:07.072Z,14.10
2023-03-16T10:53:52.999Z,13.90
2023-03-16T10:56:38.543Z,14.00
2023-03-16T10:59:32.836Z,14.10
2023-03-16T11:02:20.722Z,14.30
2023-03-16T11:05:15.981Z,14.10
2023-03-16T11:08:12.268Z,14.30
2023-03-16T11:10:59.659Z,14.20
2023-03-16T11:13:47.275Z,14.30
2023-03-16T11:16:39.149Z,14.30
2023-03-16T11:19:27.291Z,14.20
2023-03-16T11:22:26.240Z,14.20
2023-03-16T11:25:18.443Z,14.40
2023-03-16T11:28:04.163Z,14.70
2023-03-16T11:30:55.315Z,14.50
2023-03-16T11:33:41.371Z,14.80
2023-03-16T11:36:28.096Z,15.10
2023-03-16T11:39:20.699Z,15.10
2023-03-16T11:42:16.156Z,15.10
2023-03-16T11:45:13.945Z,15.00
2023-03-16T11:48:18.188Z,15.00
2023-03-16T11:51:13.379Z,14.80
2023-03-16T11:53:59.753Z,14.90
2023-03-16T11:56:51.072Z,14.90
2023-03-16T12:00:01.047Z,15.00
2023-03-16T12:03:02.767Z,15.00
2023-03-16T12:05:55.282Z,14.80
2023-03-16T12:08:47.800Z,15.00
2023-03-16T12:11:33.364Z,15.20
2023-03-16T12:14:23.433Z,15.10
2023-03-16T12:17:20.660Z,15.40
2023-03-16T12:20:14.085Z,15.50
2023-03-16T12:23:03.448Z,15.50
2023-03-16T12:25:50.488Z,15.30
2023-03-16T12:28:36.620Z,15.30
2023-03-16T12:31:37.562Z,15.30
2023-03-16T12:34:30.544Z,15.20
2023-03-16T12:37:16.303Z,15.50
2023-03-16T12:40:10.549Z,15.70
2023-03-16T12:43:03.055Z,15.90
2023-03-16T12:45:48.718Z,15.50
2023-03-16T12:48:38.793Z,15.40
2023-03-16T12:51:38.773Z,15.50
2023-03-16T12:54:25.388Z,15.70
2023-03-16T12:57:16.094Z,15.40
2023-03-16T13:00:02.054Z,15.50
2023-03-16T13:02:51.697Z,15.70
2023-03-16T13:05:37.802Z,15.40
2023-03-16T13:08:23.787Z,15.40
2023-03-16T13:11:10.784Z,15.50
2023-03-16T13:13:59.597Z,15.80
2023-03-16T13:16:47.798Z,16.10
2023-03-16T13:19:37.837Z,16.20
2023-03-16T13:22:23.162Z,16.40
2023-03-16T13:25:22.421Z,16.20
2023-03-16T13:28:10.973Z,16.10
2023-03-16T13:30:56.984Z,16.00
2023-03-16T13:33:42.719Z,16.00
2023-03-16T13:36:29.849Z,16.10
2023-03-16T13:39:22.450Z,16.20
2023-03-16T13:42:21.281Z,16.20
2023-03-16T13:45:14.340Z,16.30
2023-03-16T13:48:01.774Z,16.20
2023-03-16T13:50:54.918Z,16.20
2023-03-16T13:53:40.944Z,16.20
2023-03-16T13:56:28.896Z,16.00
2023-03-16T13:59:15.677Z,15.80
2023-03-16T14:02:02.085Z,15.80
2023-03-16T14:04:48.111Z,15.90
2023-03-16T14:07:36.943Z,16.00
2023-03-16T14:10:25.333Z,15.90
2023-03-16T14:13:26.420Z,16.10
2023-03-16T14:16:15.502Z,15.90
2023-03-16T14:19:02.308Z,16.10
2023-03-16T14:21:47.724Z,16.20
2023-03-16T14:24:35.436Z,16.30
2023-03-16T14:27:23.174Z,16.20
2023-03-16T14:30:25.940Z,16.20
2023-03-16T14:33:31.716Z,16.20
2023-03-16T14:36:18.708Z,15.90
2023-03-16T14:39:14.616Z,16.00
2023-03-16T14:42:02.328Z,16.10
2023-03-16T14:44:49.712Z,16.30
2023-03-16T14:47:40.752Z,16.20
2023-03-16T14:50:26.454Z,16.30
2023-03-16T14:53:11.994Z,16.20
2023-03-16T14:55:59.514Z,16.00
2023-03-16T14:58:45.627Z,15.80
2023-03-16T15:01:31.422Z,15.90
2023-03-16T15:04:19.479Z,15.70
2023-03-16T15:07:13.207Z,15.80
2023-03-16T15:10:10.030Z,15.60
2023-03-16T15:13:04.177Z,15.60
2023-03-16T15:15:50.565Z,15.70
2023-03-16T15:18:37.582Z,15.70
2023-03-16T15:21:24.260Z,15.60
2023-03-16T15:24:12.152Z,15.50
2023-03-16T15:26:57.601Z,15.50
2023-03-16T15:29:43.093Z,15.60
2023-03-16T15:32:28.952Z,15.80
2023-03-16T15:35:14.649Z,15.80
2023-03-16T15:38:02.847Z,15.70
2023-03-16T15:40:51.176Z,15.60
2023-03-16T15:43:37.322Z,15.60
2023-03-16T15:46:22.931Z,15.50
2023-03-16T15:49:08.472Z,15.40
2023-03-16T15:51:54.066Z,15.40
2023-03-16T15:54:39.791Z,15.20
2023-03-16T15:57:25.854Z,15.30
2023-03-16T16:00:23.664Z,15.30
2023-03-16T16:03:11.461Z,15.30
2023-03-16T16:05:57.161Z,15.30
2023-03-16T16:08:42.703Z,15.20
2023-03-16T16:11:31.912Z,15.20
2023-03-16T16:14:26.721Z,15.20
2023-03-16T16:17:13.573Z,15.10
2023-03-16T16:19:59.595Z,15.10
2023-03-16T16:22:45.247Z,15.10
2023-03-16T16:25:35.257Z,15.20
2023-03-16T16:28:26.462Z,15.20
2023-03-16T16:31:13.510Z,15.10
2023-03-16T16:33:59.560Z,15.00
2023-03-16T16:36:45.185Z,15.00
2023-03-16T16:39:31.080Z,14.90
2023-03-16T16:42:17.821Z,14.90
2023-03-16T16:45:03.822Z,14.80
2023-03-16T16:47:52.214Z,14.80
2023-03-16T16:50:37.881Z,14.70
2023-03-16T16:53:24.641Z,14.60
2023-03-16T16:56:14.125Z,14.60
2023-03-16T16:59:02.837Z,14.60
2023-03-16T17:01:50.969Z,14.50
2023-03-16T17:04:36.823Z,14.50
2023-03-16T17:07:22.808Z,14.50
2023-03-16T17:10:10.505Z,14.40
2023-03-16T17:12:59.423Z,14.30
2023-03-16T17:15:45.317Z,14.30
2023-03-16T17:18:31.342Z,14.30
2023-03-16T17:21:19.794Z,14.10
2023-03-16T17:24:05.274Z,14.00
2023-03-16T17:26:56.040Z,13.90
2023-03-16T17:29:42.810Z,13.80
2023-03-16T17:32:28.254Z,13.80
2023-03-16T17:35:15.420Z,13.70
2023-03-16T17:38:01.382Z,13.70
2023-03-16T17:40:47.494Z,13.60
2023-03-16T17:43:33.347Z,13.60
2023-03-16T17:46:20.399Z,13.50
2023-03-16T17:49:18.457Z,13.40
2023-03-16T17:52:06.075Z,13.40
2023-03-16T17:54:52.528Z,13.30
2023-03-16T17:57:38.257Z,13.30
2023-03-16T18:00:26.922Z,13.20
2023-03-16T18:03:13.893Z,13.20
2023-03-16T18:05:59.652Z,13.10
2023-03-16T18:08:47.975Z,13.10
2023-03-16T18:11:39.860Z,13.10
2023-03-16T18:14:35.347Z,13.10
2023-03-16T18:17:28.642Z,13.10
2023-03-16T18:20:22.116Z,13.10
2023-03-16T18:23:16.407Z,13.10
2023-03-16T18:26:07.005Z,12.90
2023-03-16T18:28:53.589Z,12.90
2023-03-16T18:31:39.777Z,12.80
2023-03-16T18:34:27.451Z,12.80
2023-03-16T18:37:17.284Z,12.60
2023-03-16T18:40:02.900Z,12.50
2023-03-16T18:42:48.499Z,12.40
2023-03-16T18:45:34.156Z,12.50
2023-03-16T18:48:26.507Z,12.40
2023-03-16T18:51:14.166Z,12.40
2023-03-16T18:53:59.780Z,12.40
2023-03-16T18:56:45.204Z,12.40
2023-03-16T18:59:32.024Z,12.30
2023-03-16T19:02:25.311Z,12.30
2023-03-16T19:05:11.243Z,12.30
2023-03-16T19:07:56.609Z,12.30
2023-03-16T19:10:48.271Z,12.20
2023-03-16T19:13:33.656Z,12.20
2023-03-16T19:16:22.729Z,12.10
2023-03-16T19:19:08.487Z,12.10
2023-03-16T19:22:14.305Z,12.00
2023-03-16T19:25:00.084Z,12.00
2023-03-16T19:27:46.150Z,12.00
2023-03-16T19:30:33.686Z,11.90
2023-03-16T19:33:22.538Z,11.90
2023-03-16T19:36:15.729Z,11.90
2023-03-16T19:39:01.432Z,11.90
2023-03-16T19:41:49.306Z,11.80
2023-03-16T19:44:34.770Z,11.80
2023-03-16T19:47:27.794Z,11.80
2023-03-16T19:50:14.491Z,11.70
2023-03-16T19:53:00.197Z,11.60
2023-03-16T19:55:47.231Z,11.60
2023-03-16T19:58:33.381Z,11.50
2023-03-16T20:01:20.250Z,11.50
2023-03-16T20:04:06.341Z,11.50
2023-03-16T20:06:53.650Z,11.50
2023-03-16T20:09:39.186Z,11.40
2023-03-16T20:12:30.030Z,11.40
2023-03-16T20:15:20.988Z,11.30
2023-03-16T20:18:13.334Z,11.30
2023-03-16T20:20:58.840Z,11.30
2023-03-16T20:23:45.075Z,11.30
2023-03-16T20:26:32.964Z,11.20
2023-03-16T20:29:30.395Z,11.20
2023-03-16T20:32:20.482Z,11.20
2023-03-16T20:35:33.025Z,11.10
2023-03-16T20:38:19.392Z,11.10
2023-03-16T20:41:17.720Z,11.10
2023-03-16T20:44:03.559Z,11.10
2023-03-16T20:46:49.129Z,11.00
2023-03-16T20:49:34.615Z,11.00
2023-03-16T20:52:25.252Z,11.00
2023-03-16T20:55:15.877Z,10.90
2023-03-16T20:58:02.844Z,10.90
2023-03-16T21:00:50.640Z,10.90
2023-03-16T21:03:37.155Z,10.90
2023-03-16T21:06:24.300Z,10.80
2023-03-16T21:09:10.203Z,10.80
2023-03-16T21:11:55.864Z,10.80
2023-03-16T21:14:41.439Z,10.60
2023-03-16T21:17:31.994Z,10.70
2023-03-16T21:20:20.243Z,10.60
2023-03-16T21:23:11.714Z,10.60
2023-03-16T21:25:59.485Z,10.50
2023-03-16T21:28:48.274Z,10.50
2023-03-16T21:31:34.437Z,10.50
2023-03-16T21:34:25.148Z,10.40
2023-03-16T21:37:14.772Z,10.20
2023-03-16T21:40:01.448Z,10.20
2023-03-16T21:42:47.517Z,10.10
2023-03-16T21:45:33.176Z,10.20
2023-03-16T21:48:28.011Z,10.10
2023-03-16T21:51:15.021Z,9.90
2023-03-16T21:54:01.931Z,9.60
2023-03-16T21:56:48.001Z,9.30
2023-03-16T21:59:34.211Z,9.10
2023-03-16T22:02:24.759Z,9.00
2023-03-16T22:05:30.868Z,8.90
2023-03-16T22:08:18.527Z,9.80
2023-03-16T22:11:10.449Z,8.70
2023-03-16T22:13:56.435Z,8.70
2023-03-16T22:16:42.127Z,8.60
2023-03-16T22:19:30.042Z,8.50
2023-03-16T22:22:16.857Z,8.40
2023-03-16T22:25:02.735Z,8.40
2023-03-16T22:27:48.948Z,8.40
2023-03-16T22:30:34.757Z,8.30
2023-03-16T22:33:23.647Z,8.30
2023-03-16T22:36:11.746Z,8.30
2023-03-16T22:39:00.127Z,8.20
2023-03-16T22:41:45.501Z,7.80
2023-03-16T22:44:31.154Z,7.80
2023-03-16T22:47:37.068Z,7.90
2023-03-16T22:50:24.316Z,7.90
2023-03-16T22:53:11.823Z,7.80
2023-03-16T22:55:57.775Z,7.80
2023-03-16T22:58:48.807Z,7.80
2023-03-16T23:01:34.516Z,7.80
2023-03-16T23:04:24.795Z,7.80
2023-03-16T23:07:11.913Z,7.80
2023-03-16T23:09:57.389Z,7.70
2023-03-16T23:12:44.014Z,7.60
2023-03-16T23:15:30.797Z,7.50
2023-03-16T23:18:18.779Z,7.50
2023-03-16T23:21:04.309Z,7.50
2023-03-16T23:24:03.028Z,7.40
2023-03-16T23:26:50.703Z,7.30
2023-03-16T23:29:36.591Z,7.40
2023-03-16T23:32:22.205Z,7.40
2023-03-16T23:35:15.845Z,7.40
2023-03-16T23:38:01.499Z,7.40
2023-03-16T23:40:47.182Z,7.40
2023-03-16T23:43:33.083Z,7.40
2023-03-16T23:46:19.737Z,7.40
2023-03-16T23:49:05.577Z,7.40
2023-03-16T23:51:52.012Z,7.40
2023-03-16T23:54:37.895Z,7.40
2023-03-16T23:57:23.564Z,7.40
